sensor_id;sensor_type;location;lat;lon;timestamp;P1;durP1;ratioP1;P2;durP2;ratioP2
6825;SDS011;3451;52.476;13.316;2024-02-26T00:01:02;14.50;;;8.57;;
6825;SDS011;3451;52.476;13.316;2024-02-26T00:03:28;16.50;;;8.77;;
6825;SDS011;3451;52.476;13.316;2024-02-26T00:05:55;15.27;;;8.33;;
6825;SDS011;3451;52.476;13.316;2024-02-26T00:08:22;14.33;;;8.73;;
6825;SDS011;3451;52.476;13.316;2024-02-26T00:10:49;16.90;;;8.97;;
6825;SDS011;3451;52.476;13.316;2024-02-26T00:13:15;13.13;;;8.73;;
6825;SDS011;3451;52.476;13.316;2024-02-26T00:15:41;14.90;;;8.83;;
6825;SDS011;3451;52.476;13.316;2024-02-26T00:18:07;13.07;;;8.67;;
6825;SDS011;3451;52.476;13.316;2024-02-26T00:20:34;14.33;;;8.87;;
6825;SDS011;3451;52.476;13.316;2024-02-26T00:23:01;12.83;;;8.40;;
6825;SDS011;3451;52.476;13.316;2024-02-26T00:25:27;16.13;;;8.80;;
6825;SDS011;3451;52.476;13.316;2024-02-26T00:27:54;15.47;;;9.23;;
6825;SDS011;3451;52.476;13.316;2024-02-26T00:30:21;18.67;;;10.30;;
6825;SDS011;3451;52.476;13.316;2024-02-26T00:32:48;19.30;;;11.27;;
6825;SDS011;3451;52.476;13.316;2024-02-26T00:35:15;17.20;;;10.77;;
6825;SDS011;3451;52.476;13.316;2024-02-26T00:37:42;17.43;;;11.07;;
6825;SDS011;3451;52.476;13.316;2024-02-26T00:40:10;18.20;;;10.30;;
6825;SDS011;3451;52.476;13.316;2024-02-26T00:42:36;15.73;;;10.17;;
6825;SDS011;3451;52.476;13.316;2024-02-26T00:45:03;14.80;;;10.27;;
6825;SDS011;3451;52.476;13.316;2024-02-26T00:47:29;18.07;;;10.63;;
6825;SDS011;3451;52.476;13.316;2024-02-26T00:49:55;18.67;;;10.80;;
6825;SDS011;3451;52.476;13.316;2024-02-26T00:52:22;18.33;;;10.90;;
6825;SDS011;3451;52.476;13.316;2024-02-26T00:54:48;18.50;;;11.50;;
6825;SDS011;3451;52.476;13.316;2024-02-26T00:57:15;18.60;;;10.53;;
6825;SDS011;3451;52.476;13.316;2024-02-26T00:59:41;18.93;;;11.93;;
6825;SDS011;3451;52.476;13.316;2024-02-26T01:02:08;14.97;;;10.80;;
6825;SDS011;3451;52.476;13.316;2024-02-26T01:04:34;18.73;;;11.37;;
6825;SDS011;3451;52.476;13.316;2024-02-26T01:07:00;15.83;;;10.47;;
6825;SDS011;3451;52.476;13.316;2024-02-26T01:09:27;16.23;;;10.33;;
6825;SDS011;3451;52.476;13.316;2024-02-26T01:11:53;16.93;;;10.77;;
6825;SDS011;3451;52.476;13.316;2024-02-26T01:14:20;16.30;;;10.97;;
6825;SDS011;3451;52.476;13.316;2024-02-26T01:16:46;17.73;;;10.87;;
6825;SDS011;3451;52.476;13.316;2024-02-26T01:19:13;18.63;;;11.50;;
6825;SDS011;3451;52.476;13.316;2024-02-26T01:21:39;18.37;;;10.53;;
6825;SDS011;3451;52.476;13.316;2024-02-26T01:24:06;15.33;;;10.67;;
6825;SDS011;3451;52.476;13.316;2024-02-26T01:26:33;15.57;;;11.13;;
6825;SDS011;3451;52.476;13.316;2024-02-26T01:28:59;17.20;;;10.63;;
6825;SDS011;3451;52.476;13.316;2024-02-26T01:31:25;14.20;;;9.93;;
6825;SDS011;3451;52.476;13.316;2024-02-26T01:33:52;17.23;;;10.93;;
6825;SDS011;3451;52.476;13.316;2024-02-26T01:36:19;15.40;;;10.10;;
6825;SDS011;3451;52.476;13.316;2024-02-26T01:38:45;14.80;;;10.47;;
6825;SDS011;3451;52.476;13.316;2024-02-26T01:41:13;14.03;;;10.90;;
6825;SDS011;3451;52.476;13.316;2024-02-26T01:43:39;12.73;;;10.17;;
6825;SDS011;3451;52.476;13.316;2024-02-26T01:46:06;17.37;;;10.60;;
6825;SDS011;3451;52.476;13.316;2024-02-26T01:48:34;16.00;;;10.13;;
6825;SDS011;3451;52.476;13.316;2024-02-26T01:51:01;17.63;;;11.07;;
6825;SDS011;3451;52.476;13.316;2024-02-26T01:53:27;17.03;;;10.20;;
6825;SDS011;3451;52.476;13.316;2024-02-26T01:55:54;15.73;;;10.40;;
6825;SDS011;3451;52.476;13.316;2024-02-26T01:58:20;16.27;;;10.60;;
6825;SDS011;3451;52.476;13.316;2024-02-26T02:00:46;14.87;;;9.63;;
6825;SDS011;3451;52.476;13.316;2024-02-26T02:03:13;15.13;;;10.27;;
6825;SDS011;3451;52.476;13.316;2024-02-26T02:05:39;14.70;;;10.37;;
6825;SDS011;3451;52.476;13.316;2024-02-26T02:08:12;17.50;;;10.07;;
6825;SDS011;3451;52.476;13.316;2024-02-26T02:10:39;18.97;;;10.27;;
6825;SDS011;3451;52.476;13.316;2024-02-26T02:13:07;17.27;;;10.73;;
6825;SDS011;3451;52.476;13.316;2024-02-26T02:15:33;16.57;;;10.43;;
6825;SDS011;3451;52.476;13.316;2024-02-26T02:17:59;15.23;;;10.63;;
6825;SDS011;3451;52.476;13.316;2024-02-26T02:20:31;13.17;;;9.63;;
6825;SDS011;3451;52.476;13.316;2024-02-26T02:22:57;14.53;;;9.97;;
6825;SDS011;3451;52.476;13.316;2024-02-26T02:25:24;15.47;;;10.13;;
6825;SDS011;3451;52.476;13.316;2024-02-26T02:27:50;15.67;;;10.20;;
6825;SDS011;3451;52.476;13.316;2024-02-26T02:30:17;16.33;;;10.67;;
6825;SDS011;3451;52.476;13.316;2024-02-26T02:32:44;13.20;;;9.63;;
6825;SDS011;3451;52.476;13.316;2024-02-26T02:35:10;12.80;;;8.50;;
6825;SDS011;3451;52.476;13.316;2024-02-26T02:37:37;13.40;;;9.63;;
6825;SDS011;3451;52.476;13.316;2024-02-26T02:40:03;14.93;;;9.63;;
6825;SDS011;3451;52.476;13.316;2024-02-26T02:42:31;15.80;;;9.47;;
6825;SDS011;3451;52.476;13.316;2024-02-26T02:44:57;13.03;;;8.77;;
6825;SDS011;3451;52.476;13.316;2024-02-26T02:47:24;13.60;;;9.03;;
6825;SDS011;3451;52.476;13.316;2024-02-26T02:49:51;14.67;;;9.10;;
6825;SDS011;3451;52.476;13.316;2024-02-26T02:52:17;12.17;;;8.30;;
6825;SDS011;3451;52.476;13.316;2024-02-26T02:54:43;12.07;;;8.17;;
6825;SDS011;3451;52.476;13.316;2024-02-26T02:57:10;10.27;;;7.60;;
6825;SDS011;3451;52.476;13.316;2024-02-26T02:59:37;12.00;;;7.53;;
6825;SDS011;3451;52.476;13.316;2024-02-26T03:02:03;9.27;;;7.37;;
6825;SDS011;3451;52.476;13.316;2024-02-26T03:04:29;10.63;;;7.30;;
6825;SDS011;3451;52.476;13.316;2024-02-26T03:06:56;9.67;;;7.03;;
6825;SDS011;3451;52.476;13.316;2024-02-26T03:09:24;10.50;;;6.87;;
6825;SDS011;3451;52.476;13.316;2024-02-26T03:11:50;10.63;;;6.83;;
6825;SDS011;3451;52.476;13.316;2024-02-26T03:14:16;8.33;;;6.73;;
6825;SDS011;3451;52.476;13.316;2024-02-26T03:16:43;9.57;;;6.70;;
6825;SDS011;3451;52.476;13.316;2024-02-26T03:19:09;9.10;;;6.60;;
6825;SDS011;3451;52.476;13.316;2024-02-26T03:21:35;7.57;;;6.03;;
6825;SDS011;3451;52.476;13.316;2024-02-26T03:24:02;9.50;;;6.67;;
6825;SDS011;3451;52.476;13.316;2024-02-26T03:26:28;7.80;;;6.43;;
6825;SDS011;3451;52.476;13.316;2024-02-26T03:28:54;8.77;;;6.50;;
6825;SDS011;3451;52.476;13.316;2024-02-26T03:31:21;8.53;;;6.40;;
6825;SDS011;3451;52.476;13.316;2024-02-26T03:33:47;8.53;;;6.80;;
6825;SDS011;3451;52.476;13.316;2024-02-26T03:36:14;8.77;;;6.67;;
6825;SDS011;3451;52.476;13.316;2024-02-26T03:38:40;9.50;;;6.87;;
6825;SDS011;3451;52.476;13.316;2024-02-26T03:41:07;11.63;;;7.50;;
6825;SDS011;3451;52.476;13.316;2024-02-26T03:43:34;8.33;;;6.20;;
6825;SDS011;3451;52.476;13.316;2024-02-26T03:46:01;9.20;;;7.00;;
6825;SDS011;3451;52.476;13.316;2024-02-26T03:48:27;8.87;;;7.07;;
6825;SDS011;3451;52.476;13.316;2024-02-26T03:50:54;8.70;;;6.70;;
6825;SDS011;3451;52.476;13.316;2024-02-26T03:53:20;13.77;;;7.23;;
6825;SDS011;3451;52.476;13.316;2024-02-26T03:55:46;9.23;;;7.07;;
6825;SDS011;3451;52.476;13.316;2024-02-26T03:58:13;11.13;;;7.80;;
6825;SDS011;3451;52.476;13.316;2024-02-26T04:00:39;9.00;;;6.93;;
6825;SDS011;3451;52.476;13.316;2024-02-26T04:03:05;9.90;;;7.10;;
6825;SDS011;3451;52.476;13.316;2024-02-26T04:05:32;10.23;;;7.00;;
6825;SDS011;3451;52.476;13.316;2024-02-26T04:07:58;11.10;;;7.37;;
6825;SDS011;3451;52.476;13.316;2024-02-26T04:10:25;11.37;;;7.40;;
6825;SDS011;3451;52.476;13.316;2024-02-26T04:12:51;10.23;;;7.10;;
6825;SDS011;3451;52.476;13.316;2024-02-26T04:15:17;10.10;;;7.50;;
6825;SDS011;3451;52.476;13.316;2024-02-26T04:17:44;10.07;;;7.27;;
6825;SDS011;3451;52.476;13.316;2024-02-26T04:20:14;10.23;;;7.13;;
6825;SDS011;3451;52.476;13.316;2024-02-26T04:22:42;9.47;;;7.13;;
6825;SDS011;3451;52.476;13.316;2024-02-26T04:25:08;8.87;;;7.10;;
6825;SDS011;3451;52.476;13.316;2024-02-26T04:27:34;12.50;;;8.00;;
6825;SDS011;3451;52.476;13.316;2024-02-26T04:30:01;9.13;;;6.83;;
6825;SDS011;3451;52.476;13.316;2024-02-26T04:32:28;10.77;;;7.30;;
6825;SDS011;3451;52.476;13.316;2024-02-26T04:34:54;10.97;;;7.70;;
6825;SDS011;3451;52.476;13.316;2024-02-26T04:37:21;10.10;;;7.43;;
6825;SDS011;3451;52.476;13.316;2024-02-26T04:39:47;10.10;;;7.70;;
6825;SDS011;3451;52.476;13.316;2024-02-26T04:42:16;10.03;;;7.73;;
6825;SDS011;3451;52.476;13.316;2024-02-26T04:44:42;10.50;;;7.30;;
6825;SDS011;3451;52.476;13.316;2024-02-26T04:47:09;9.30;;;7.17;;
6825;SDS011;3451;52.476;13.316;2024-02-26T04:49:35;9.50;;;7.37;;
6825;SDS011;3451;52.476;13.316;2024-02-26T04:52:02;8.97;;;7.10;;
6825;SDS011;3451;52.476;13.316;2024-02-26T04:54:28;9.80;;;7.07;;
6825;SDS011;3451;52.476;13.316;2024-02-26T04:56:55;10.53;;;7.23;;
6825;SDS011;3451;52.476;13.316;2024-02-26T04:59:21;11.93;;;8.27;;
6825;SDS011;3451;52.476;13.316;2024-02-26T05:01:47;12.33;;;7.40;;
6825;SDS011;3451;52.476;13.316;2024-02-26T05:04:14;11.87;;;8.20;;
6825;SDS011;3451;52.476;13.316;2024-02-26T05:06:41;10.80;;;7.90;;
6825;SDS011;3451;52.476;13.316;2024-02-26T05:09:07;12.60;;;8.53;;
6825;SDS011;3451;52.476;13.316;2024-02-26T05:11:34;11.00;;;7.87;;
6825;SDS011;3451;52.476;13.316;2024-02-26T05:14:01;12.87;;;8.30;;
6825;SDS011;3451;52.476;13.316;2024-02-26T05:16:28;12.27;;;8.30;;
6825;SDS011;3451;52.476;13.316;2024-02-26T05:18:56;11.13;;;8.37;;
6825;SDS011;3451;52.476;13.316;2024-02-26T05:21:23;13.00;;;8.43;;
6825;SDS011;3451;52.476;13.316;2024-02-26T05:23:50;10.70;;;8.00;;
6825;SDS011;3451;52.476;13.316;2024-02-26T05:26:20;16.33;;;8.60;;
6825;SDS011;3451;52.476;13.316;2024-02-26T05:28:47;13.93;;;9.03;;
6825;SDS011;3451;52.476;13.316;2024-02-26T05:31:14;13.10;;;8.90;;
6825;SDS011;3451;52.476;13.316;2024-02-26T05:33:40;12.40;;;9.27;;
6825;SDS011;3451;52.476;13.316;2024-02-26T05:36:06;12.40;;;9.27;;
6825;SDS011;3451;52.476;13.316;2024-02-26T05:38:33;12.77;;;8.80;;
6825;SDS011;3451;52.476;13.316;2024-02-26T05:40:59;13.53;;;9.87;;
6825;SDS011;3451;52.476;13.316;2024-02-26T05:43:26;15.10;;;10.50;;
6825;SDS011;3451;52.476;13.316;2024-02-26T05:45:52;16.20;;;10.13;;
6825;SDS011;3451;52.476;13.316;2024-02-26T05:48:19;12.60;;;9.27;;
6825;SDS011;3451;52.476;13.316;2024-02-26T05:50:46;13.13;;;9.43;;
6825;SDS011;3451;52.476;13.316;2024-02-26T05:53:12;15.53;;;10.17;;
6825;SDS011;3451;52.476;13.316;2024-02-26T05:55:39;14.03;;;10.37;;
6825;SDS011;3451;52.476;13.316;2024-02-26T05:58:05;17.93;;;10.00;;
6825;SDS011;3451;52.476;13.316;2024-02-26T06:00:31;13.17;;;10.03;;
6825;SDS011;3451;52.476;13.316;2024-02-26T06:02:58;15.43;;;10.70;;
6825;SDS011;3451;52.476;13.316;2024-02-26T06:05:24;14.83;;;10.17;;
6825;SDS011;3451;52.476;13.316;2024-02-26T06:07:51;16.00;;;10.87;;
6825;SDS011;3451;52.476;13.316;2024-02-26T06:10:17;18.10;;;11.50;;
6825;SDS011;3451;52.476;13.316;2024-02-26T06:12:47;17.00;;;10.17;;
6825;SDS011;3451;52.476;13.316;2024-02-26T06:15:14;16.70;;;11.73;;
6825;SDS011;3451;52.476;13.316;2024-02-26T06:17:40;20.40;;;12.43;;
6825;SDS011;3451;52.476;13.316;2024-02-26T06:20:07;18.40;;;12.00;;
6825;SDS011;3451;52.476;13.316;2024-02-26T06:22:39;16.83;;;11.70;;
6825;SDS011;3451;52.476;13.316;2024-02-26T06:25:06;20.43;;;11.97;;
6825;SDS011;3451;52.476;13.316;2024-02-26T06:27:32;18.80;;;12.47;;
6825;SDS011;3451;52.476;13.316;2024-02-26T06:29:59;20.70;;;12.27;;
6825;SDS011;3451;52.476;13.316;2024-02-26T06:32:25;17.50;;;11.93;;
6825;SDS011;3451;52.476;13.316;2024-02-26T06:34:54;23.67;;;12.23;;
6825;SDS011;3451;52.476;13.316;2024-02-26T06:37:20;16.40;;;11.87;;
6825;SDS011;3451;52.476;13.316;2024-02-26T06:39:47;18.63;;;12.23;;
6825;SDS011;3451;52.476;13.316;2024-02-26T06:42:14;18.40;;;12.33;;
6825;SDS011;3451;52.476;13.316;2024-02-26T06:44:40;18.30;;;12.20;;
6825;SDS011;3451;52.476;13.316;2024-02-26T06:47:06;19.80;;;12.97;;
6825;SDS011;3451;52.476;13.316;2024-02-26T06:49:33;18.00;;;12.37;;
6825;SDS011;3451;52.476;13.316;2024-02-26T06:51:59;20.63;;;13.27;;
6825;SDS011;3451;52.476;13.316;2024-02-26T06:54:25;20.73;;;13.20;;
6825;SDS011;3451;52.476;13.316;2024-02-26T06:56:52;19.40;;;13.63;;
6825;SDS011;3451;52.476;13.316;2024-02-26T06:59:18;19.60;;;12.77;;
6825;SDS011;3451;52.476;13.316;2024-02-26T07:01:46;19.23;;;12.80;;
6825;SDS011;3451;52.476;13.316;2024-02-26T07:04:12;20.97;;;13.63;;
6825;SDS011;3451;52.476;13.316;2024-02-26T07:06:39;22.80;;;13.03;;
6825;SDS011;3451;52.476;13.316;2024-02-26T07:09:06;23.53;;;13.80;;
6825;SDS011;3451;52.476;13.316;2024-02-26T07:11:32;28.00;;;14.83;;
6825;SDS011;3451;52.476;13.316;2024-02-26T07:13:58;20.83;;;13.30;;
6825;SDS011;3451;52.476;13.316;2024-02-26T07:16:24;21.40;;;13.63;;
6825;SDS011;3451;52.476;13.316;2024-02-26T07:18:51;22.67;;;13.80;;
6825;SDS011;3451;52.476;13.316;2024-02-26T07:21:17;20.53;;;13.30;;
6825;SDS011;3451;52.476;13.316;2024-02-26T07:23:44;20.83;;;13.50;;
6825;SDS011;3451;52.476;13.316;2024-02-26T07:26:10;21.03;;;14.37;;
6825;SDS011;3451;52.476;13.316;2024-02-26T07:28:38;19.97;;;14.27;;
6825;SDS011;3451;52.476;13.316;2024-02-26T07:31:04;25.87;;;14.57;;
6825;SDS011;3451;52.476;13.316;2024-02-26T07:33:30;23.50;;;14.30;;
6825;SDS011;3451;52.476;13.316;2024-02-26T07:35:57;22.87;;;14.17;;
6825;SDS011;3451;52.476;13.316;2024-02-26T07:38:23;20.10;;;13.70;;
6825;SDS011;3451;52.476;13.316;2024-02-26T07:41:07;23.47;;;15.07;;
6825;SDS011;3451;52.476;13.316;2024-02-26T07:43:33;21.70;;;14.93;;
6825;SDS011;3451;52.476;13.316;2024-02-26T07:45:59;20.00;;;14.93;;
6825;SDS011;3451;52.476;13.316;2024-02-26T07:48:26;18.17;;;13.50;;
6825;SDS011;3451;52.476;13.316;2024-02-26T07:50:52;25.43;;;15.53;;
6825;SDS011;3451;52.476;13.316;2024-02-26T07:53:19;22.17;;;14.70;;
6825;SDS011;3451;52.476;13.316;2024-02-26T07:55:45;22.97;;;15.50;;
6825;SDS011;3451;52.476;13.316;2024-02-26T07:58:11;24.43;;;15.40;;
6825;SDS011;3451;52.476;13.316;2024-02-26T08:00:38;20.73;;;15.17;;
6825;SDS011;3451;52.476;13.316;2024-02-26T08:03:04;21.93;;;15.03;;
6825;SDS011;3451;52.476;13.316;2024-02-26T08:05:30;26.00;;;15.13;;
6825;SDS011;3451;52.476;13.316;2024-02-26T08:07:57;20.90;;;15.50;;
6825;SDS011;3451;52.476;13.316;2024-02-26T08:10:24;24.87;;;15.23;;
6825;SDS011;3451;52.476;13.316;2024-02-26T08:12:50;21.43;;;14.57;;
6825;SDS011;3451;52.476;13.316;2024-02-26T08:15:17;22.40;;;15.27;;
6825;SDS011;3451;52.476;13.316;2024-02-26T08:17:45;22.97;;;15.10;;
6825;SDS011;3451;52.476;13.316;2024-02-26T08:20:13;22.73;;;14.87;;
6825;SDS011;3451;52.476;13.316;2024-02-26T08:22:40;21.53;;;14.80;;
6825;SDS011;3451;52.476;13.316;2024-02-26T08:25:06;25.87;;;16.77;;
6825;SDS011;3451;52.476;13.316;2024-02-26T08:27:35;25.33;;;15.37;;
6825;SDS011;3451;52.476;13.316;2024-02-26T08:30:01;23.73;;;15.83;;
6825;SDS011;3451;52.476;13.316;2024-02-26T08:32:28;21.93;;;14.83;;
6825;SDS011;3451;52.476;13.316;2024-02-26T08:34:54;22.20;;;14.60;;
6825;SDS011;3451;52.476;13.316;2024-02-26T08:37:21;23.50;;;16.03;;
6825;SDS011;3451;52.476;13.316;2024-02-26T08:39:48;22.23;;;14.77;;
6825;SDS011;3451;52.476;13.316;2024-02-26T08:42:15;23.10;;;14.23;;
6825;SDS011;3451;52.476;13.316;2024-02-26T08:44:41;19.70;;;14.33;;
6825;SDS011;3451;52.476;13.316;2024-02-26T08:47:07;20.97;;;14.13;;
6825;SDS011;3451;52.476;13.316;2024-02-26T08:49:34;19.53;;;14.20;;
6825;SDS011;3451;52.476;13.316;2024-02-26T08:52:00;19.67;;;13.93;;
6825;SDS011;3451;52.476;13.316;2024-02-26T08:54:26;18.70;;;13.67;;
6825;SDS011;3451;52.476;13.316;2024-02-26T08:56:53;16.43;;;13.47;;
6825;SDS011;3451;52.476;13.316;2024-02-26T08:59:19;20.73;;;13.63;;
6825;SDS011;3451;52.476;13.316;2024-02-26T09:01:48;18.63;;;13.50;;
6825;SDS011;3451;52.476;13.316;2024-02-26T09:04:15;16.40;;;13.70;;
6825;SDS011;3451;52.476;13.316;2024-02-26T09:06:41;17.40;;;13.10;;
6825;SDS011;3451;52.476;13.316;2024-02-26T09:09:07;18.73;;;13.03;;
6825;SDS011;3451;52.476;13.316;2024-02-26T09:11:34;16.20;;;13.93;;
6825;SDS011;3451;52.476;13.316;2024-02-26T09:14:00;19.07;;;13.33;;
6825;SDS011;3451;52.476;13.316;2024-02-26T09:16:27;16.90;;;13.27;;
6825;SDS011;3451;52.476;13.316;2024-02-26T09:18:53;17.90;;;13.67;;
6825;SDS011;3451;52.476;13.316;2024-02-26T09:21:20;19.23;;;14.07;;
6825;SDS011;3451;52.476;13.316;2024-02-26T09:23:50;18.43;;;14.17;;
6825;SDS011;3451;52.476;13.316;2024-02-26T09:26:17;18.40;;;13.73;;
6825;SDS011;3451;52.476;13.316;2024-02-26T09:28:47;19.17;;;13.30;;
6825;SDS011;3451;52.476;13.316;2024-02-26T09:31:14;17.97;;;13.13;;
6825;SDS011;3451;52.476;13.316;2024-02-26T09:33:42;17.90;;;13.43;;
6825;SDS011;3451;52.476;13.316;2024-02-26T09:36:09;23.37;;;13.57;;
6825;SDS011;3451;52.476;13.316;2024-02-26T09:38:37;18.80;;;13.10;;
6825;SDS011;3451;52.476;13.316;2024-02-26T09:41:21;18.87;;;12.43;;
6825;SDS011;3451;52.476;13.316;2024-02-26T09:43:48;14.73;;;12.23;;
6825;SDS011;3451;52.476;13.316;2024-02-26T09:46:14;18.37;;;11.87;;
6825;SDS011;3451;52.476;13.316;2024-02-26T09:48:42;16.60;;;11.40;;
6825;SDS011;3451;52.476;13.316;2024-02-26T09:51:10;13.63;;;10.97;;
6825;SDS011;3451;52.476;13.316;2024-02-26T09:53:38;16.53;;;10.90;;
6825;SDS011;3451;52.476;13.316;2024-02-26T09:56:08;18.23;;;10.70;;
6825;SDS011;3451;52.476;13.316;2024-02-26T09:58:34;14.40;;;10.43;;
6825;SDS011;3451;52.476;13.316;2024-02-26T10:01:02;14.23;;;10.63;;
6825;SDS011;3451;52.476;13.316;2024-02-26T10:03:31;12.27;;;10.33;;
6825;SDS011;3451;52.476;13.316;2024-02-26T10:05:58;15.17;;;9.97;;
6825;SDS011;3451;52.476;13.316;2024-02-26T10:08:25;14.57;;;9.50;;
6825;SDS011;3451;52.476;13.316;2024-02-26T10:10:52;12.40;;;10.10;;
6825;SDS011;3451;52.476;13.316;2024-02-26T10:13:18;15.57;;;10.73;;
6825;SDS011;3451;52.476;13.316;2024-02-26T10:15:46;14.90;;;10.77;;
6825;SDS011;3451;52.476;13.316;2024-02-26T10:18:12;15.23;;;10.10;;
6825;SDS011;3451;52.476;13.316;2024-02-26T10:20:39;15.00;;;11.17;;
6825;SDS011;3451;52.476;13.316;2024-02-26T10:23:05;16.53;;;10.90;;
6825;SDS011;3451;52.476;13.316;2024-02-26T10:25:32;14.33;;;10.50;;
6825;SDS011;3451;52.476;13.316;2024-02-26T10:27:59;14.97;;;10.40;;
6825;SDS011;3451;52.476;13.316;2024-02-26T10:30:28;13.60;;;9.97;;
6825;SDS011;3451;52.476;13.316;2024-02-26T10:32:55;14.57;;;10.47;;
6825;SDS011;3451;52.476;13.316;2024-02-26T10:35:22;14.33;;;10.47;;
6825;SDS011;3451;52.476;13.316;2024-02-26T10:37:49;12.33;;;10.47;;
6825;SDS011;3451;52.476;13.316;2024-02-26T10:40:15;14.60;;;9.63;;
6825;SDS011;3451;52.476;13.316;2024-02-26T10:42:42;13.77;;;10.03;;
6825;SDS011;3451;52.476;13.316;2024-02-26T10:45:09;13.37;;;9.33;;
6825;SDS011;3451;52.476;13.316;2024-02-26T10:47:36;12.43;;;9.37;;
6825;SDS011;3451;52.476;13.316;2024-02-26T10:50:03;13.90;;;9.63;;
6825;SDS011;3451;52.476;13.316;2024-02-26T10:52:31;16.70;;;8.93;;
6825;SDS011;3451;52.476;13.316;2024-02-26T10:54:57;12.33;;;9.40;;
6825;SDS011;3451;52.476;13.316;2024-02-26T10:57:26;15.47;;;8.87;;
6825;SDS011;3451;52.476;13.316;2024-02-26T10:59:53;13.37;;;8.70;;
6825;SDS011;3451;52.476;13.316;2024-02-26T11:02:20;11.80;;;8.40;;
6825;SDS011;3451;52.476;13.316;2024-02-26T11:04:46;14.70;;;9.10;;
6825;SDS011;3451;52.476;13.316;2024-02-26T11:07:13;14.40;;;8.73;;
6825;SDS011;3451;52.476;13.316;2024-02-26T11:09:40;12.10;;;8.77;;
6825;SDS011;3451;52.476;13.316;2024-02-26T11:12:10;13.23;;;9.10;;
6825;SDS011;3451;52.476;13.316;2024-02-26T11:14:39;11.53;;;8.73;;
6825;SDS011;3451;52.476;13.316;2024-02-26T11:17:07;11.97;;;8.70;;
6825;SDS011;3451;52.476;13.316;2024-02-26T11:19:35;13.67;;;9.53;;
6825;SDS011;3451;52.476;13.316;2024-02-26T11:22:03;14.17;;;9.43;;
6825;SDS011;3451;52.476;13.316;2024-02-26T11:24:46;15.67;;;9.13;;
6825;SDS011;3451;52.476;13.316;2024-02-26T11:27:12;14.63;;;8.80;;
6825;SDS011;3451;52.476;13.316;2024-02-26T11:29:43;15.57;;;9.30;;
6825;SDS011;3451;52.476;13.316;2024-02-26T11:32:10;14.60;;;8.63;;
6825;SDS011;3451;52.476;13.316;2024-02-26T11:34:37;13.10;;;8.33;;
6825;SDS011;3451;52.476;13.316;2024-02-26T11:37:11;11.50;;;8.60;;
6825;SDS011;3451;52.476;13.316;2024-02-26T11:39:39;11.70;;;8.40;;
6825;SDS011;3451;52.476;13.316;2024-02-26T11:42:09;11.80;;;7.97;;
6825;SDS011;3451;52.476;13.316;2024-02-26T11:44:35;11.63;;;8.33;;
6825;SDS011;3451;52.476;13.316;2024-02-26T11:47:24;13.87;;;8.60;;
6825;SDS011;3451;52.476;13.316;2024-02-26T11:49:49;11.17;;;8.20;;
6825;SDS011;3451;52.476;13.316;2024-02-26T11:52:15;13.13;;;8.30;;
6825;SDS011;3451;52.476;13.316;2024-02-26T11:54:52;13.00;;;8.63;;
6825;SDS011;3451;52.476;13.316;2024-02-26T11:59:52;14.00;;;7.60;;
6825;SDS011;3451;52.476;13.316;2024-02-26T12:05:06;11.27;;;7.50;;
6825;SDS011;3451;52.476;13.316;2024-02-26T12:07:33;11.77;;;8.10;;
6825;SDS011;3451;52.476;13.316;2024-02-26T12:10:13;10.80;;;8.50;;
6825;SDS011;3451;52.476;13.316;2024-02-26T12:12:41;13.10;;;9.27;;
6825;SDS011;3451;52.476;13.316;2024-02-26T12:15:08;13.37;;;8.93;;
6825;SDS011;3451;52.476;13.316;2024-02-26T12:17:35;14.90;;;8.93;;
6825;SDS011;3451;52.476;13.316;2024-02-26T12:20:11;13.53;;;9.00;;
6825;SDS011;3451;52.476;13.316;2024-02-26T12:22:39;13.37;;;9.10;;
6825;SDS011;3451;52.476;13.316;2024-02-26T12:25:06;12.90;;;9.17;;
6825;SDS011;3451;52.476;13.316;2024-02-26T12:27:35;13.93;;;9.47;;
6825;SDS011;3451;52.476;13.316;2024-02-26T12:30:02;18.67;;;10.63;;
6825;SDS011;3451;52.476;13.316;2024-02-26T12:32:29;13.10;;;9.50;;
6825;SDS011;3451;52.476;13.316;2024-02-26T12:34:56;12.50;;;8.83;;
6825;SDS011;3451;52.476;13.316;2024-02-26T12:37:22;13.90;;;9.77;;
6825;SDS011;3451;52.476;13.316;2024-02-26T12:39:49;12.00;;;9.80;;
6825;SDS011;3451;52.476;13.316;2024-02-26T12:42:16;14.27;;;11.23;;
6825;SDS011;3451;52.476;13.316;2024-02-26T12:44:44;16.93;;;11.03;;
6825;SDS011;3451;52.476;13.316;2024-02-26T12:47:11;17.87;;;11.87;;
6825;SDS011;3451;52.476;13.316;2024-02-26T12:49:42;14.20;;;10.60;;
6825;SDS011;3451;52.476;13.316;2024-02-26T12:52:10;14.37;;;10.77;;
6825;SDS011;3451;52.476;13.316;2024-02-26T12:54:37;16.13;;;10.93;;
6825;SDS011;3451;52.476;13.316;2024-02-26T12:57:07;15.83;;;10.40;;
6825;SDS011;3451;52.476;13.316;2024-02-26T12:59:34;17.03;;;10.53;;
6825;SDS011;3451;52.476;13.316;2024-02-26T13:02:01;14.27;;;10.30;;
6825;SDS011;3451;52.476;13.316;2024-02-26T13:04:31;18.90;;;10.53;;
6825;SDS011;3451;52.476;13.316;2024-02-26T13:06:58;15.60;;;10.00;;
6825;SDS011;3451;52.476;13.316;2024-02-26T13:09:33;14.40;;;9.53;;
6825;SDS011;3451;52.476;13.316;2024-02-26T13:12:03;11.47;;;9.07;;
6825;SDS011;3451;52.476;13.316;2024-02-26T13:14:29;11.13;;;7.90;;
6825;SDS011;3451;52.476;13.316;2024-02-26T13:16:57;11.10;;;8.00;;
6825;SDS011;3451;52.476;13.316;2024-02-26T13:19:24;12.47;;;7.80;;
6825;SDS011;3451;52.476;13.316;2024-02-26T13:21:51;11.33;;;7.97;;
6825;SDS011;3451;52.476;13.316;2024-02-26T13:24:19;12.20;;;7.90;;
6825;SDS011;3451;52.476;13.316;2024-02-26T13:26:46;11.63;;;7.50;;
6825;SDS011;3451;52.476;13.316;2024-02-26T13:29:18;14.60;;;7.27;;
6825;SDS011;3451;52.476;13.316;2024-02-26T13:31:44;9.60;;;6.93;;
6825;SDS011;3451;52.476;13.316;2024-02-26T13:34:11;10.40;;;6.63;;
6825;SDS011;3451;52.476;13.316;2024-02-26T13:36:37;9.27;;;6.47;;
6825;SDS011;3451;52.476;13.316;2024-02-26T13:39:04;8.23;;;6.23;;
6825;SDS011;3451;52.476;13.316;2024-02-26T13:41:31;9.37;;;6.03;;
6825;SDS011;3451;52.476;13.316;2024-02-26T13:43:58;9.17;;;6.50;;
6825;SDS011;3451;52.476;13.316;2024-02-26T13:46:24;7.73;;;5.73;;
6825;SDS011;3451;52.476;13.316;2024-02-26T13:48:52;11.63;;;6.00;;
6825;SDS011;3451;52.476;13.316;2024-02-26T13:51:21;9.40;;;5.83;;
6825;SDS011;3451;52.476;13.316;2024-02-26T13:53:47;11.07;;;5.67;;
6825;SDS011;3451;52.476;13.316;2024-02-26T13:56:14;8.77;;;5.63;;
6825;SDS011;3451;52.476;13.316;2024-02-26T13:58:40;9.20;;;5.63;;
6825;SDS011;3451;52.476;13.316;2024-02-26T14:01:06;9.13;;;5.77;;
6825;SDS011;3451;52.476;13.316;2024-02-26T14:03:33;5.80;;;4.30;;
6825;SDS011;3451;52.476;13.316;2024-02-26T14:05:59;7.57;;;4.67;;
6825;SDS011;3451;52.476;13.316;2024-02-26T14:08:26;7.17;;;4.43;;
6825;SDS011;3451;52.476;13.316;2024-02-26T14:10:52;7.60;;;4.43;;
6825;SDS011;3451;52.476;13.316;2024-02-26T14:13:19;8.00;;;4.20;;
6825;SDS011;3451;52.476;13.316;2024-02-26T14:15:45;6.13;;;4.57;;
6825;SDS011;3451;52.476;13.316;2024-02-26T14:18:12;5.93;;;4.30;;
6825;SDS011;3451;52.476;13.316;2024-02-26T14:20:38;6.20;;;4.10;;
6825;SDS011;3451;52.476;13.316;2024-02-26T14:23:06;6.37;;;4.90;;
6825;SDS011;3451;52.476;13.316;2024-02-26T14:25:33;9.40;;;5.00;;
6825;SDS011;3451;52.476;13.316;2024-02-26T14:27:59;5.47;;;4.50;;
6825;SDS011;3451;52.476;13.316;2024-02-26T14:30:26;7.97;;;4.73;;
6825;SDS011;3451;52.476;13.316;2024-02-26T14:32:53;6.67;;;4.57;;
6825;SDS011;3451;52.476;13.316;2024-02-26T14:35:20;6.40;;;5.00;;
6825;SDS011;3451;52.476;13.316;2024-02-26T14:37:46;8.47;;;4.93;;
6825;SDS011;3451;52.476;13.316;2024-02-26T14:40:14;6.93;;;5.20;;
6825;SDS011;3451;52.476;13.316;2024-02-26T14:42:42;8.33;;;5.53;;
6825;SDS011;3451;52.476;13.316;2024-02-26T14:45:08;7.20;;;5.20;;
6825;SDS011;3451;52.476;13.316;2024-02-26T14:47:35;8.40;;;5.50;;